createdAt,value
2022-09-30T00:00:21.298Z,78.20
2022-09-30T00:02:47.968Z,78.30
2022-09-30T00:05:14.709Z,78.10
2022-09-30T00:07:42.259Z,78.00
2022-09-30T00:10:08.963Z,78.00
2022-09-30T00:12:35.551Z,78.00
2022-09-30T00:15:02.167Z,78.20
2022-09-30T00:17:28.919Z,78.20
2022-09-30T00:19:55.528Z,78.10
2022-09-30T00:22:22.126Z,78.10
2022-09-30T00:24:48.732Z,78.20
2022-09-30T00:27:18.180Z,78.10
2022-09-30T00:29:45.142Z,78.20
2022-09-30T00:32:11.863Z,78.20
2022-09-30T00:34:38.420Z,78.20
2022-09-30T00:37:05.149Z,78.20
2022-09-30T00:39:31.698Z,78.20
2022-09-30T00:42:00.101Z,78.20
2022-09-30T00:44:45.856Z,78.20
2022-09-30T00:47:18.628Z,77.80
2022-09-30T00:49:45.299Z,77.80
2022-09-30T00:52:12.496Z,78.30
2022-09-30T00:54:39.089Z,78.30
2022-09-30T00:57:07.996Z,78.30
2022-09-30T00:59:38.133Z,78.30
2022-09-30T01:02:05.771Z,78.20
2022-09-30T01:04:32.729Z,78.30
2022-09-30T01:06:59.923Z,78.20
2022-09-30T01:09:27.005Z,78.30
2022-09-30T01:11:53.630Z,78.20
2022-09-30T01:14:21.981Z,78.30
2022-09-30T01:17:07.329Z,78.30
2022-09-30T01:19:52.435Z,77.80
2022-09-30T01:22:19.012Z,77.80
2022-09-30T01:25:04.365Z,78.30
2022-09-30T01:27:30.959Z,77.80
2022-09-30T01:30:07.008Z,78.30
2022-09-30T01:33:00.211Z,77.90
2022-09-30T01:35:37.197Z,77.90
2022-09-30T01:38:11.493Z,77.90
2022-09-30T01:40:44.459Z,78.40
2022-09-30T01:43:14.030Z,77.90
2022-09-30T01:45:49.921Z,77.90
2022-09-30T01:48:19.396Z,77.90
2022-09-30T01:50:46.298Z,77.90
2022-09-30T01:53:22.487Z,78.30
2022-09-30T01:55:52.695Z,78.00
2022-09-30T01:58:26.634Z,78.40
2022-09-30T02:00:55.947Z,78.40
2022-09-30T02:03:26.028Z,78.40
2022-09-30T02:05:53.362Z,78.40
2022-09-30T02:08:32.146Z,78.40
2022-09-30T02:11:01.676Z,78.00
2022-09-30T02:13:35.691Z,78.50
2022-09-30T02:16:12.699Z,78.00
2022-09-30T02:18:45.121Z,78.50
2022-09-30T02:21:14.562Z,78.50
2022-09-30T02:23:42.602Z,78.40
2022-09-30T02:26:13.288Z,78.50
2022-09-30T02:28:43.718Z,78.50
2022-09-30T02:31:11.602Z,78.50
2022-09-30T02:33:40.554Z,78.50
2022-09-30T02:36:09.703Z,78.50
2022-09-30T02:38:39.787Z,78.60
2022-09-30T02:41:10.444Z,78.50
2022-09-30T02:43:37.238Z,78.60
2022-09-30T02:46:07.019Z,78.50
2022-09-30T02:49:03.150Z,78.00
2022-09-30T02:51:47.782Z,78.10
2022-09-30T02:54:23.578Z,78.00
2022-09-30T02:56:54.779Z,78.10
2022-09-30T02:59:22.217Z,78.00
2022-09-30T03:01:48.974Z,78.60
2022-09-30T03:04:19.039Z,78.60
2022-09-30T03:06:45.617Z,78.60
2022-09-30T03:09:12.359Z,78.60
2022-09-30T03:11:40.221Z,78.60
2022-09-30T03:14:06.783Z,78.60
2022-09-30T03:16:48.645Z,78.60
2022-09-30T03:19:15.196Z,78.10
2022-09-30T03:21:51.073Z,78.60
2022-09-30T03:24:23.261Z,78.10
2022-09-30T03:26:56.066Z,78.70
2022-09-30T03:29:25.752Z,78.70
2022-09-30T03:32:30.962Z,78.70
2022-09-30T03:35:06.739Z,78.20
2022-09-30T03:37:51.893Z,78.20
2022-09-30T03:40:24.837Z,78.20
2022-09-30T03:42:55.842Z,78.70
2022-09-30T03:45:42.756Z,78.70
2022-09-30T03:48:10.908Z,78.80
2022-09-30T03:50:38.246Z,78.70
2022-09-30T03:53:08.509Z,78.80
2022-09-30T03:55:43.322Z,78.80
2022-09-30T03:58:09.922Z,78.80
2022-09-30T04:00:37.146Z,78.80
2022-09-30T04:03:03.798Z,78.90
2022-09-30T04:05:30.341Z,78.80
2022-09-30T04:07:56.916Z,78.90
2022-09-30T04:10:23.601Z,79.00
2022-09-30T04:12:53.005Z,78.90
2022-09-30T04:15:19.569Z,78.90
2022-09-30T04:17:46.142Z,79.00
2022-09-30T04:20:12.825Z,79.10
2022-09-30T04:22:39.448Z,79.50
2022-09-30T04:25:06.330Z,79.40
2022-09-30T04:27:32.903Z,79.20
2022-09-30T04:29:59.464Z,79.60
2022-09-30T04:32:26.074Z,79.60
2022-09-30T04:34:54.094Z,79.50
2022-09-30T04:37:21.210Z,79.60
2022-09-30T04:39:47.791Z,79.60
2022-09-30T04:42:14.409Z,79.70
2022-09-30T04:44:40.967Z,79.70
2022-09-30T04:47:07.522Z,79.80
2022-09-30T04:49:34.118Z,79.80
2022-09-30T04:52:00.802Z,79.80
2022-09-30T04:54:27.487Z,79.80
2022-09-30T04:56:54.096Z,79.90
2022-09-30T04:59:20.734Z,79.90
2022-09-30T05:01:47.462Z,80.00
2022-09-30T05:04:16.089Z,80.00
2022-09-30T05:06:42.749Z,80.00
2022-09-30T05:09:09.385Z,79.90
2022-09-30T05:11:38.095Z,80.00
2022-09-30T05:14:08.797Z,80.00
2022-09-30T05:16:35.526Z,80.00
2022-09-30T05:19:02.276Z,80.00
2022-09-30T05:21:28.900Z,80.10
2022-09-30T05:23:55.550Z,80.70
2022-09-30T05:26:22.149Z,80.20
2022-09-30T05:28:48.746Z,80.20
2022-09-30T05:31:15.374Z,80.20
2022-09-30T05:33:42.266Z,80.70
2022-09-30T05:36:11.833Z,80.20
2022-09-30T05:38:38.446Z,80.30
2022-09-30T05:41:08.758Z,80.20
2022-09-30T05:43:37.143Z,79.40
2022-09-30T05:46:03.743Z,80.30
2022-09-30T05:48:30.329Z,80.40
2022-09-30T05:50:57.626Z,80.30
2022-09-30T05:53:24.388Z,80.30
2022-09-30T05:55:51.449Z,80.20
2022-09-30T05:58:18.387Z,80.30
2022-09-30T06:00:45.852Z,80.30
2022-09-30T06:03:12.950Z,80.30
2022-09-30T06:05:39.739Z,80.30
2022-09-30T06:08:09.711Z,80.20
2022-09-30T06:10:36.319Z,79.70
2022-09-30T06:13:03.512Z,80.20
2022-09-30T06:15:30.186Z,80.30
2022-09-30T06:17:56.960Z,80.40
2022-09-30T06:20:23.650Z,80.20
2022-09-30T06:22:50.228Z,80.40
2022-09-30T06:25:17.764Z,80.60
2022-09-30T06:27:45.350Z,80.60
2022-09-30T06:30:12.416Z,80.70
2022-09-30T06:32:39.236Z,80.60
2022-09-30T06:35:05.941Z,80.50
2022-09-30T06:37:32.707Z,80.50
2022-09-30T06:39:59.270Z,80.50
2022-09-30T06:42:25.867Z,80.60
2022-09-30T06:44:53.574Z,80.50
2022-09-30T06:47:25.225Z,80.60
2022-09-30T06:49:53.065Z,80.80
2022-09-30T06:52:20.059Z,80.70
2022-09-30T06:54:47.086Z,80.70
2022-09-30T06:57:13.821Z,80.70
2022-09-30T06:59:40.669Z,80.70
2022-09-30T07:02:09.029Z,80.70
2022-09-30T07:04:35.718Z,80.60
2022-09-30T07:07:02.952Z,80.60
2022-09-30T07:09:29.558Z,80.40
2022-09-30T07:11:56.199Z,80.20
2022-09-30T07:14:23.992Z,79.90
2022-09-30T07:16:53.089Z,79.90
2022-09-30T07:19:23.081Z,79.80
2022-09-30T07:21:50.211Z,79.40
2022-09-30T07:24:19.938Z,79.40
2022-09-30T07:26:46.497Z,78.60
2022-09-30T07:29:13.818Z,79.20
2022-09-30T07:31:41.063Z,79.50
2022-09-30T07:34:08.715Z,79.60
2022-09-30T07:36:37.633Z,79.50
2022-09-30T07:39:06.827Z,79.40
2022-09-30T07:41:35.817Z,79.30
2022-09-30T07:44:02.940Z,79.20
2022-09-30T07:46:30.934Z,79.10
2022-09-30T07:49:00.818Z,79.40
2022-09-30T07:51:32.285Z,79.50
2022-09-30T07:54:00.720Z,78.80
2022-09-30T07:56:27.837Z,79.50
2022-09-30T07:58:55.634Z,79.50
2022-09-30T08:01:22.799Z,79.40
2022-09-30T08:03:52.752Z,79.30
2022-09-30T08:06:19.734Z,79.20
2022-09-30T08:08:47.034Z,79.20
2022-09-30T08:11:14.822Z,79.00
2022-09-30T08:13:41.612Z,78.90
2022-09-30T08:16:08.567Z,79.10
2022-09-30T08:18:35.518Z,78.90
2022-09-30T08:21:06.571Z,78.80
2022-09-30T08:23:33.630Z,78.40
2022-09-30T08:26:01.297Z,79.20
2022-09-30T08:28:31.259Z,79.30
2022-09-30T08:31:04.962Z,79.00
2022-09-30T08:33:32.614Z,78.50
2022-09-30T08:36:06.263Z,79.20
2022-09-30T08:38:33.533Z,78.50
2022-09-30T08:41:05.086Z,79.40
2022-09-30T08:43:35.056Z,79.30
2022-09-30T08:46:01.856Z,79.20
2022-09-30T08:48:47.279Z,78.70
2022-09-30T08:51:21.084Z,78.50
2022-09-30T08:53:48.162Z,78.60
2022-09-30T08:56:23.393Z,79.50
2022-09-30T08:58:51.521Z,78.70
2022-09-30T09:01:27.339Z,79.60
2022-09-30T09:03:54.509Z,78.70
2022-09-30T09:06:31.126Z,79.60
2022-09-30T09:09:18.149Z,78.50
2022-09-30T09:11:44.755Z,79.30
2022-09-30T09:14:44.008Z,79.50
2022-09-30T09:17:19.830Z,78.80
2022-09-30T09:19:57.246Z,78.80
2022-09-30T09:22:25.180Z,79.90
2022-09-30T09:24:53.406Z,80.00
2022-09-30T09:27:20.138Z,79.90
2022-09-30T11:08:20.785Z,60.40
2022-09-30T11:10:53.344Z,59.30
2022-09-30T11:13:32.252Z,59.00
2022-09-30T11:16:17.796Z,58.80
2022-09-30T11:18:47.665Z,58.90
2022-09-30T11:21:20.023Z,60.40
2022-09-30T11:23:50.959Z,58.80
2022-09-30T11:26:37.786Z,60.40
2022-09-30T11:29:23.179Z,60.20
2022-09-30T11:31:58.906Z,58.70
2022-09-30T11:34:30.602Z,58.60
2022-09-30T11:37:12.694Z,60.40
2022-09-30T11:39:48.366Z,58.40
2022-09-30T11:42:14.998Z,58.40
2022-09-30T11:44:43.876Z,59.80
2022-09-30T11:47:32.473Z,60.30
2022-09-30T11:50:08.279Z,58.50
2022-09-30T11:52:44.095Z,58.40
2022-09-30T11:55:15.112Z,58.40
2022-09-30T11:57:49.600Z,60.10
2022-09-30T12:00:17.549Z,60.10
2022-09-30T12:02:44.550Z,60.20
2022-09-30T12:05:18.438Z,60.00
2022-09-30T12:07:54.527Z,58.40
2022-09-30T12:10:24.665Z,58.40
2022-09-30T12:12:54.483Z,60.00
2022-09-30T12:15:23.856Z,59.90
2022-09-30T12:17:54.910Z,60.00
2022-09-30T12:20:27.269Z,59.80
2022-09-30T12:22:56.148Z,58.00
2022-09-30T12:25:26.808Z,59.60
2022-09-30T12:27:53.413Z,59.70
2022-09-30T12:30:21.922Z,59.40
2022-09-30T12:33:03.753Z,59.50
2022-09-30T12:35:33.368Z,58.00
2022-09-30T12:38:09.037Z,58.00
2022-09-30T12:40:48.875Z,58.00
2022-09-30T12:43:37.380Z,57.90
2022-09-30T12:46:16.265Z,58.00
2022-09-30T12:48:48.342Z,57.80
2022-09-30T12:51:21.804Z,57.80
2022-09-30T12:53:50.645Z,59.40
2022-09-30T12:56:17.557Z,59.60
2022-09-30T12:58:47.027Z,59.50
2022-09-30T13:01:18.239Z,59.20
2022-09-30T13:03:49.820Z,57.30
2022-09-30T13:06:18.291Z,59.00
2022-09-30T13:08:52.366Z,59.00
2022-09-30T13:11:37.625Z,57.20
2022-09-30T13:14:22.399Z,57.20
2022-09-30T13:16:58.631Z,57.30
2022-09-30T13:19:33.726Z,56.90
2022-09-30T13:22:18.873Z,56.70
2022-09-30T13:25:00.743Z,56.50
2022-09-30T13:27:34.324Z,56.50
2022-09-30T13:30:01.633Z,56.50
2022-09-30T13:32:37.747Z,56.50
2022-09-30T13:35:24.626Z,56.30
2022-09-30T13:38:09.661Z,55.90
2022-09-30T13:41:00.244Z,54.80
2022-09-30T13:43:30.616Z,53.60
2022-09-30T13:45:58.323Z,52.70
2022-09-30T13:48:34.070Z,52.50
2022-09-30T13:51:03.687Z,51.70
2022-09-30T13:53:41.621Z,50.60
2022-09-30T13:56:09.377Z,49.90
2022-09-30T13:58:48.370Z,49.00
2022-09-30T14:01:21.513Z,48.30
2022-09-30T14:03:51.289Z,47.80
2022-09-30T14:06:45.379Z,47.20
2022-09-30T14:09:24.484Z,46.70
2022-09-30T14:12:12.329Z,46.40
2022-09-30T14:14:54.271Z,46.00
2022-09-30T14:17:30.304Z,45.80
2022-09-30T14:20:23.007Z,46.20
2022-09-30T14:22:49.623Z,45.70
2022-09-30T14:25:17.260Z,45.80
2022-09-30T14:28:03.391Z,46.00
2022-09-30T14:30:32.788Z,46.10
2022-09-30T14:33:02.210Z,46.30
2022-09-30T14:35:31.196Z,46.50
2022-09-30T14:37:57.775Z,46.50
2022-09-30T14:40:29.639Z,46.60
2022-09-30T14:43:01.330Z,46.70
2022-09-30T14:45:30.470Z,46.80
2022-09-30T14:47:58.882Z,46.80
2022-09-30T14:50:33.251Z,47.00
2022-09-30T14:53:02.834Z,47.00
2022-09-30T14:55:34.226Z,47.10
2022-09-30T14:58:18.856Z,47.20
2022-09-30T15:00:48.582Z,47.10
2022-09-30T15:03:15.411Z,47.80
2022-09-30T15:05:42.118Z,48.90
2022-09-30T15:08:12.887Z,49.70
2022-09-30T15:10:46.830Z,50.40
2022-09-30T15:13:13.457Z,51.30
2022-09-30T15:15:40.677Z,51.50
2022-09-30T15:18:24.062Z,52.00
2022-09-30T15:20:53.817Z,52.10
2022-09-30T15:23:23.581Z,52.90
2022-09-30T15:25:51.004Z,53.40
2022-09-30T15:28:17.855Z,53.90
2022-09-30T15:30:44.589Z,54.70
2022-09-30T15:33:16.812Z,55.30
2022-09-30T15:35:43.821Z,54.90
2022-09-30T15:38:16.412Z,55.40
2022-09-30T15:40:49.251Z,55.60
2022-09-30T15:43:16.955Z,55.70
2022-09-30T15:45:44.603Z,55.90
2022-09-30T15:48:26.361Z,56.10
2022-09-30T15:50:57.052Z,55.80
2022-09-30T15:53:25.654Z,73.30
2022-09-30T15:55:56.477Z,71.80
2022-09-30T15:58:26.510Z,66.20
2022-09-30T16:01:21.290Z,64.60
2022-09-30T16:03:51.180Z,71.80
2022-09-30T16:06:20.198Z,59.40
2022-09-30T16:08:48.082Z,61.90
2022-09-30T16:11:20.443Z,72.60
2022-09-30T16:13:48.023Z,61.30
2022-09-30T16:16:19.000Z,70.80
2022-09-30T16:18:45.964Z,62.60
2022-09-30T16:21:28.048Z,62.10
2022-09-30T16:23:54.612Z,74.10
2022-09-30T16:26:24.419Z,61.60
2022-09-30T16:28:51.367Z,75.10
2022-09-30T16:31:18.320Z,75.50
2022-09-30T16:33:45.222Z,73.60
2022-09-30T16:36:12.731Z,70.90
2022-09-30T16:38:39.322Z,62.40
2022-09-30T16:41:06.029Z,68.40
2022-09-30T16:43:32.631Z,66.70
2022-09-30T16:46:02.234Z,60.60
2022-09-30T16:48:28.883Z,59.50
2022-09-30T16:51:07.196Z,60.50
2022-09-30T16:53:34.367Z,59.20
2022-09-30T16:56:01.087Z,60.80
2022-09-30T16:58:27.761Z,61.00
2022-09-30T17:00:54.430Z,66.10
2022-09-30T17:03:22.088Z,63.50
2022-09-30T17:05:53.138Z,63.60
2022-09-30T17:08:20.591Z,64.10
2022-09-30T17:10:49.830Z,64.10
2022-09-30T17:13:17.442Z,64.80
2022-09-30T17:15:48.243Z,64.30
2022-09-30T17:18:15.034Z,65.50
2022-09-30T17:20:45.538Z,63.70
2022-09-30T17:23:12.695Z,62.10
2022-09-30T17:25:41.174Z,64.80
2022-09-30T17:28:08.357Z,66.10
2022-09-30T17:30:35.104Z,67.10
2022-09-30T17:33:01.736Z,65.90
2022-09-30T17:35:28.298Z,65.50
2022-09-30T17:37:56.230Z,65.50
2022-09-30T17:40:41.257Z,65.40
2022-09-30T17:43:08.445Z,63.70
2022-09-30T17:45:35.513Z,65.60
2022-09-30T17:48:02.331Z,65.80
2022-09-30T17:50:29.192Z,65.30
2022-09-30T17:52:56.341Z,65.70
2022-09-30T17:55:22.954Z,65.20
2022-09-30T17:57:50.034Z,64.90
2022-09-30T18:00:16.743Z,64.90
2022-09-30T18:02:44.668Z,65.10
2022-09-30T18:05:11.665Z,65.50
2022-09-30T18:07:38.280Z,65.70
2022-09-30T18:10:05.119Z,65.60
2022-09-30T18:12:34.849Z,65.00
2022-09-30T18:15:01.489Z,65.70
2022-09-30T18:17:28.264Z,65.70
2022-09-30T18:19:54.881Z,63.10
2022-09-30T18:22:21.520Z,64.00
2022-09-30T18:25:06.549Z,64.60
2022-09-30T18:27:33.979Z,62.80
2022-09-30T18:30:01.494Z,65.10
2022-09-30T18:32:28.630Z,65.10
2022-09-30T18:34:56.331Z,65.00
2022-09-30T18:37:23.403Z,65.40
2022-09-30T18:39:50.097Z,65.60
2022-09-30T18:42:19.066Z,65.00
2022-09-30T18:44:46.187Z,64.90
2022-09-30T18:47:13.936Z,64.60
2022-09-30T18:49:40.609Z,65.30
2022-09-30T18:52:08.560Z,64.90
2022-09-30T18:54:35.191Z,65.90
2022-09-30T18:57:01.795Z,65.10
2022-09-30T18:59:29.604Z,65.90
2022-09-30T19:01:57.980Z,65.80
2022-09-30T19:04:24.620Z,66.30
2022-09-30T19:06:51.283Z,66.00
2022-09-30T19:09:18.019Z,66.00
2022-09-30T19:11:46.160Z,66.10
2022-09-30T19:14:12.847Z,66.80
2022-09-30T19:16:42.369Z,67.10
2022-09-30T19:19:12.279Z,65.50
2022-09-30T19:21:39.339Z,67.40
2022-09-30T19:24:06.782Z,68.20
2022-09-30T19:26:34.572Z,68.50
2022-09-30T19:29:01.195Z,69.20
2022-09-30T19:31:28.373Z,68.60
2022-09-30T19:33:57.041Z,69.20
2022-09-30T19:36:24.669Z,69.80
2022-09-30T19:38:55.615Z,69.60
2022-09-30T19:41:26.521Z,68.80
2022-09-30T19:43:53.107Z,71.00
2022-09-30T19:46:21.561Z,70.90
2022-09-30T19:48:48.189Z,70.70
2022-09-30T19:51:16.882Z,73.80
2022-09-30T19:53:51.220Z,70.90
2022-09-30T19:56:20.903Z,76.70
2022-09-30T19:58:49.005Z,66.50
2022-09-30T20:01:16.474Z,66.20
2022-09-30T20:03:43.258Z,69.00
2022-09-30T20:06:13.747Z,73.00
2022-09-30T20:08:41.535Z,73.50
2022-09-30T20:11:14.994Z,76.60
2022-09-30T20:13:42.166Z,72.90
2022-09-30T20:16:12.931Z,72.10
2022-09-30T20:18:40.354Z,74.20
2022-09-30T20:21:09.130Z,69.00
2022-09-30T20:23:39.402Z,77.30
2022-09-30T20:26:07.161Z,67.50
2022-09-30T20:28:33.810Z,77.10
2022-09-30T20:31:05.154Z,64.50
2022-09-30T20:33:31.744Z,64.20
2022-09-30T20:35:59.535Z,77.50
2022-09-30T20:38:26.153Z,64.10
2022-09-30T20:40:57.034Z,70.70
2022-09-30T20:43:27.845Z,77.40
2022-09-30T20:45:55.392Z,64.90
2022-09-30T20:48:22.146Z,63.90
2022-09-30T20:50:49.212Z,77.10
2022-09-30T20:53:15.900Z,63.50
2022-09-30T20:55:45.867Z,64.00
2022-09-30T20:58:12.752Z,79.30
2022-09-30T21:00:41.797Z,65.80
2022-09-30T21:03:09.378Z,63.00
2022-09-30T21:05:36.701Z,75.70
2022-09-30T21:08:03.548Z,66.20
2022-09-30T21:10:30.321Z,64.30
2022-09-30T21:12:58.710Z,63.90
2022-09-30T21:15:25.633Z,63.10
2022-09-30T21:17:54.767Z,62.80
2022-09-30T21:20:22.087Z,62.40
2022-09-30T21:22:49.027Z,62.60
2022-09-30T21:25:15.706Z,62.80
2022-09-30T21:27:45.680Z,62.30
2022-09-30T21:30:12.735Z,62.40
2022-09-30T21:32:42.579Z,62.70
2022-09-30T21:35:09.474Z,62.40
2022-09-30T21:37:36.128Z,61.90
2022-09-30T21:40:02.771Z,62.20
2022-09-30T21:42:29.497Z,62.40
2022-09-30T21:44:56.060Z,62.50
2022-09-30T21:47:22.704Z,62.10
2022-09-30T21:49:49.649Z,62.20
2022-09-30T21:52:16.209Z,62.30
2022-09-30T21:54:42.871Z,62.50
2022-09-30T21:57:09.511Z,62.20
2022-09-30T21:59:38.669Z,61.70
2022-09-30T22:02:06.493Z,62.40
2022-09-30T22:04:33.187Z,63.10
2022-09-30T22:06:59.843Z,62.90
2022-09-30T22:09:26.419Z,62.70
2022-09-30T22:11:53.658Z,62.80
2022-09-30T22:14:20.281Z,62.40
2022-09-30T22:16:47.277Z,62.90
2022-09-30T22:19:14.518Z,62.20
2022-09-30T22:21:41.311Z,62.20
2022-09-30T22:24:09.156Z,62.90
2022-09-30T22:26:37.070Z,62.80
2022-09-30T22:29:05.181Z,63.10
2022-09-30T22:31:32.490Z,62.40
2022-09-30T22:34:19.061Z,62.80
2022-09-30T22:37:04.025Z,62.60
2022-09-30T22:39:30.941Z,62.10
2022-09-30T22:41:57.946Z,62.40
2022-09-30T22:44:25.730Z,62.60
2022-09-30T22:46:52.725Z,62.20
2022-09-30T22:49:19.436Z,62.30
2022-09-30T22:51:46.741Z,62.30
2022-09-30T22:54:13.324Z,62.60
2022-09-30T22:56:39.891Z,62.70
2022-09-30T22:59:06.875Z,62.40
2022-09-30T23:01:33.733Z,62.30
2022-09-30T23:04:00.621Z,62.50
2022-09-30T23:06:27.248Z,62.30
2022-09-30T23:08:54.543Z,62.20
2022-09-30T23:11:23.142Z,62.30
2022-09-30T23:13:52.586Z,62.20
2022-09-30T23:16:21.121Z,62.00
2022-09-30T23:18:47.779Z,62.00
2022-09-30T23:21:18.580Z,62.00
2022-09-30T23:23:46.239Z,60.80
2022-09-30T23:26:13.967Z,61.80
2022-09-30T23:28:41.467Z,61.70
2022-09-30T23:31:09.560Z,61.60
2022-09-30T23:33:40.269Z,61.60
2022-09-30T23:36:07.064Z,61.60
2022-09-30T23:38:33.853Z,61.50
2022-09-30T23:41:00.502Z,61.50
2022-09-30T23:43:31.165Z,61.50
2022-09-30T23:45:58.280Z,61.50
2022-09-30T23:48:24.947Z,61.60
2022-09-30T23:50:51.866Z,61.50
2022-09-30T23:53:18.984Z,61.50
2022-09-30T23:55:55.788Z,61.50
2022-09-30T23:58:23.198Z,60.60
